Time;durP1;ratioP1;P1;durP2;ratioP2;P2;SDS_P1;SDS_P2;PMS_P1;PMS_P2;Temp;Humidity;BMP_temperature;BMP_pressure;BME280_temperature;BME280_humidity;BME280_pressure;Samples;Min_cycle;Max_cycle;Signal;HPM_P1;HPM_P2
2022/05/18 00:02:17;;;;;;;;;;;11.60;99.90;;;;;;5095599;28;19918;-80
2022/05/18 00:04:42;;;;;;;;;;;11.60;99.90;;;;;;5096366;28;19912;-80
2022/05/18 00:07:08;;;;;;;;;;;11.60;99.90;;;;;;5096406;28;19915;-80
2022/05/18 00:09:34;;;;;;;;;;;11.60;99.90;;;;;;5095356;28;19952;-80
2022/05/18 00:11:59;;;;;;;;;;;11.60;99.90;;;;;;5095964;28;19959;-80
2022/05/18 00:14:25;;;;;;;;;;;11.60;99.90;;;;;;5095602;28;19959;-80
2022/05/18 00:16:50;;;;;;;;;;;11.60;99.90;;;;;;5095281;28;19961;-81
2022/05/18 00:19:16;;;;;;;;;;;11.50;99.90;;;;;;5095792;28;20150;-80
2022/05/18 00:21:41;;;;;;;;;;;11.50;99.90;;;;;;5094912;28;19913;-80
2022/05/18 00:24:07;;;;;;;;;;;11.50;99.90;;;;;;5095717;28;19919;-80
2022/05/18 00:26:33;;;;;;;;;;;11.50;99.90;;;;;;5094700;28;20357;-80
2022/05/18 00:28:58;;;;;;;;;;;11.50;99.90;;;;;;5095448;28;19908;-80
2022/05/18 00:31:24;;;;;;;;;;;11.50;99.90;;;;;;5095496;28;20264;-80
2022/05/18 00:33:50;;;;;;;;;;;11.50;99.90;;;;;;5094920;28;20089;-81
2022/05/18 00:36:15;;;;;;;;;;;11.50;99.90;;;;;;5095352;28;19914;-80
2022/05/18 00:38:41;;;;;;;;;;;11.50;99.90;;;;;;5094628;28;19994;-81
2022/05/18 00:41:06;;;;;;;;;;;11.50;99.90;;;;;;5095531;28;19927;-80
2022/05/18 00:43:32;;;;;;;;;;;11.60;99.90;;;;;;5094993;28;19912;-78
2022/05/18 00:45:59;;;;;;;;;;;11.50;99.90;;;;;;5094887;28;20369;-81
2022/05/18 00:48:24;;;;;;;;;;;11.60;99.90;;;;;;5095553;28;19916;-80
2022/05/18 00:50:50;;;;;;;;;;;11.60;99.90;;;;;;5094554;28;20224;-81
2022/05/18 00:53:19;;;;;;;;;;;11.60;99.90;;;;;;5095570;28;19915;-80
2022/05/18 00:55:47;;;;;;;;;;;11.60;99.90;;;;;;5094165;28;19915;-80
2022/05/18 00:58:32;;;;;;;;;;;11.60;99.90;;;;;;5095151;28;19920;-80
2022/05/18 01:00:58;;;;;;;;;;;11.60;99.90;;;;;;5094724;28;19912;-80
2022/05/18 01:03:28;;;;;;;;;;;11.70;99.90;;;;;;5095038;28;19919;-80
2022/05/18 01:05:55;;;;;;;;;;;11.60;99.90;;;;;;5094399;28;19958;-79
2022/05/18 01:08:26;;;;;;;;;;;11.60;99.90;;;;;;5093573;28;19908;-79
2022/05/18 01:10:52;;;;;;;;;;;11.70;99.90;;;;;;5094347;28;19912;-79
2022/05/18 01:13:18;;;;;;;;;;;11.70;99.90;;;;;;5094801;28;20272;-79
2022/05/18 01:15:43;;;;;;;;;;;11.60;99.90;;;;;;5094031;28;19908;-79
2022/05/18 01:18:09;;;;;;;;;;;11.60;99.90;;;;;;5094703;28;19914;-80
2022/05/18 01:20:36;;;;;;;;;;;11.60;99.90;;;;;;5094298;28;20308;-77
2022/05/18 01:23:18;;;;;;;;;;;11.60;99.90;;;;;;5093078;28;19916;-79
2022/05/18 01:25:50;;;;;;;;;;;11.60;99.90;;;;;;5093581;28;19934;-78
2022/05/18 01:28:16;;;;;;;;;;;11.60;99.90;;;;;;5094284;28;20281;-79
2022/05/18 01:30:44;;;;;;;;;;;11.60;99.90;;;;;;5093721;28;19908;-78
2022/05/18 01:33:09;;;;;;;;;;;11.60;99.90;;;;;;5094289;28;19909;-78
2022/05/18 01:35:38;;;;;;;;;;;11.60;99.90;;;;;;5092735;28;19915;-77
2022/05/18 01:38:06;;;;;;;;;;;11.50;99.90;;;;;;5094263;28;19909;-78
2022/05/18 01:40:40;;;;;;;;;;;11.50;99.90;;;;;;5094122;28;19943;-79
2022/05/18 01:43:12;;;;;;;;;;;11.40;99.90;;;;;;5094125;28;19912;-79
2022/05/18 01:45:38;;;;;;;;;;;11.50;99.90;;;;;;5093424;28;19912;-78
2022/05/18 01:48:10;;;;;;;;;;;11.50;99.90;;;;;;5093670;28;20041;-80
2022/05/18 01:50:37;;;;;;;;;;;11.60;99.90;;;;;;5093476;28;20238;-77
2022/05/18 01:53:03;;;;;;;;;;;11.50;99.90;;;;;;5093993;28;19912;-80
2022/05/18 01:55:28;;;;;;;;;;;11.50;99.90;;;;;;5094186;28;19915;-80
2022/05/18 01:57:54;;;;;;;;;;;11.50;99.90;;;;;;5092339;28;20057;-79
2022/05/18 02:00:20;;;;;;;;;;;11.50;99.90;;;;;;5093585;28;19915;-80
2022/05/18 02:02:45;;;;;;;;;;;11.50;99.90;;;;;;5092926;28;20015;-80
2022/05/18 02:05:11;;;;;;;;;;;11.50;99.90;;;;;;5093962;28;20024;-80
2022/05/18 02:07:37;;;;;;;;;;;11.50;99.90;;;;;;5093640;28;19912;-77
2022/05/18 02:10:02;;;;;;;;;;;11.50;99.90;;;;;;5093287;28;19990;-80
2022/05/18 02:12:28;;;;;;;;;;;11.50;99.90;;;;;;5093639;28;19908;-80
2022/05/18 02:14:54;;;;;;;;;;;11.50;99.90;;;;;;5092722;28;20280;-80
2022/05/18 02:17:19;;;;;;;;;;;11.50;99.90;;;;;;5093421;28;20344;-80
2022/05/18 02:19:45;;;;;;;;;;;11.40;99.90;;;;;;5092788;28;19908;-80
2022/05/18 02:22:11;;;;;;;;;;;11.40;99.90;;;;;;5093435;28;19912;-80
2022/05/18 02:24:37;;;;;;;;;;;11.40;99.90;;;;;;5093317;28;19923;-80
2022/05/18 02:27:02;;;;;;;;;;;11.40;99.90;;;;;;5092902;28;19908;-80
2022/05/18 02:29:29;;;;;;;;;;;11.40;99.90;;;;;;5093083;28;19908;-80
2022/05/18 02:31:54;;;;;;;;;;;11.30;99.90;;;;;;5092563;28;19930;-79
2022/05/18 02:34:20;;;;;;;;;;;11.30;99.90;;;;;;5092101;28;20345;-80
2022/05/18 02:36:46;;;;;;;;;;;11.30;99.90;;;;;;5092611;28;19958;-79
2022/05/18 02:39:11;;;;;;;;;;;11.30;99.90;;;;;;5093154;28;20025;-80
2022/05/18 02:41:37;;;;;;;;;;;11.30;99.90;;;;;;5091874;28;20275;-80
2022/05/18 02:44:03;;;;;;;;;;;11.30;99.90;;;;;;5091372;28;19916;-79
2022/05/18 02:46:28;;;;;;;;;;;11.30;99.90;;;;;;5092851;28;20245;-79
2022/05/18 02:48:54;;;;;;;;;;;11.20;99.90;;;;;;5092530;28;19951;-80
2022/05/18 02:51:21;;;;;;;;;;;11.20;99.90;;;;;;5093125;28;19965;-80
2022/05/18 02:53:47;;;;;;;;;;;11.20;99.90;;;;;;5092423;28;19912;-79
2022/05/18 02:56:14;;;;;;;;;;;11.20;99.90;;;;;;5093349;28;19981;-80
2022/05/18 02:58:44;;;;;;;;;;;11.20;99.90;;;;;;5092945;28;19927;-78
2022/05/18 03:01:11;;;;;;;;;;;11.10;99.90;;;;;;5092593;28;19935;-79
2022/05/18 03:03:37;;;;;;;;;;;11.20;99.90;;;;;;5092952;28;19916;-79
2022/05/18 03:06:04;;;;;;;;;;;11.20;99.90;;;;;;5091106;28;19990;-79
2022/05/18 03:08:31;;;;;;;;;;;11.20;99.90;;;;;;5092775;28;20357;-79
2022/05/18 03:10:56;;;;;;;;;;;11.20;99.90;;;;;;5096233;28;19991;-80
2022/05/18 03:13:22;;;;;;;;;;;11.20;99.90;;;;;;5096851;28;19950;-79
2022/05/18 03:15:48;;;;;;;;;;;11.30;99.90;;;;;;5096392;28;19912;-79
2022/05/18 03:18:14;;;;;;;;;;;11.30;99.90;;;;;;5096962;28;19915;-79
2022/05/18 03:23:33;;;;;;;;;;;11.30;99.90;;;;;;5096955;28;20053;-80
2022/05/18 03:26:09;;;;;;;;;;;11.30;99.90;;;;;;5096208;28;19912;-79
2022/05/18 03:28:35;;;;;;;;;;;11.30;99.90;;;;;;5096827;28;19912;-79
2022/05/18 03:31:01;;;;;;;;;;;11.30;99.90;;;;;;5096425;28;20065;-79
2022/05/18 03:33:27;;;;;;;;;;;11.20;99.90;;;;;;5095085;28;20396;-79
2022/05/18 03:35:52;;;;;;;;;;;11.30;99.90;;;;;;5095849;28;19908;-79
2022/05/18 03:38:18;;;;;;;;;;;11.30;99.90;;;;;;5096570;28;19908;-79
2022/05/18 03:40:44;;;;;;;;;;;11.30;99.90;;;;;;5095946;28;19915;-77
2022/05/18 03:43:10;;;;;;;;;;;11.30;99.90;;;;;;5096249;28;19916;-79
2022/05/18 03:45:35;;;;;;;;;;;11.30;99.90;;;;;;5096510;28;19916;-80
2022/05/18 03:48:01;;;;;;;;;;;11.30;99.90;;;;;;5095648;28;20320;-79
2022/05/18 03:50:30;;;;;;;;;;;11.40;99.90;;;;;;5096205;28;19912;-79
2022/05/18 03:52:56;;;;;;;;;;;11.40;99.90;;;;;;5095752;28;19915;-79
2022/05/18 03:55:22;;;;;;;;;;;11.30;99.90;;;;;;5096019;28;19995;-80
2022/05/18 03:57:47;;;;;;;;;;;11.30;99.90;;;;;;5095529;28;19924;-79
2022/05/18 04:00:13;;;;;;;;;;;11.30;99.90;;;;;;5096198;28;19966;-80
2022/05/18 04:02:40;;;;;;;;;;;11.30;99.90;;;;;;5095817;28;20276;-80
2022/05/18 04:05:10;;;;;;;;;;;11.30;99.90;;;;;;5095516;28;19915;-80
2022/05/18 04:07:35;;;;;;;;;;;11.30;99.90;;;;;;5096013;28;19912;-80
2022/05/18 04:10:01;;;;;;;;;;;11.30;99.90;;;;;;5095418;28;19912;-80
2022/05/18 04:12:27;;;;;;;;;;;11.40;99.90;;;;;;5095999;28;20357;-80
2022/05/18 04:14:54;;;;;;;;;;;11.30;99.90;;;;;;5095353;28;19915;-79
2022/05/18 04:17:20;;;;;;;;;;;11.30;99.90;;;;;;5095680;28;19912;-79
2022/05/18 04:19:46;;;;;;;;;;;11.40;99.90;;;;;;5093590;28;19908;-78
2022/05/18 04:22:12;;;;;;;;;;;11.40;99.90;;;;;;5095397;28;19920;-79
2022/05/18 04:24:37;;;;;;;;;;;11.40;99.90;;;;;;5095716;28;20364;-80
2022/05/18 04:27:03;;;;;;;;;;;11.40;99.90;;;;;;5094695;28;19909;-80
2022/05/18 04:29:28;;;;;;;;;;;11.40;99.90;;;;;;5095600;28;19934;-80
2022/05/18 04:31:54;;;;;;;;;;;11.40;99.90;;;;;;5095013;28;19912;-80
2022/05/18 04:34:21;;;;;;;;;;;11.40;99.90;;;;;;5095389;28;19911;-80
2022/05/18 04:36:46;;;;;;;;;;;11.40;99.90;;;;;;5095277;28;19908;-77
2022/05/18 04:39:12;;;;;;;;;;;11.50;99.90;;;;;;5095117;28;20256;-80
2022/05/18 04:41:37;;;;;;;;;;;11.40;99.90;;;;;;5095328;28;19912;-80
2022/05/18 04:44:03;;;;;;;;;;;11.40;99.90;;;;;;5094553;28;19919;-81
2022/05/18 04:46:29;;;;;;;;;;;11.40;99.90;;;;;;5095295;28;19908;-81
2022/05/18 04:48:54;;;;;;;;;;;11.40;99.90;;;;;;5094529;28;19962;-79
2022/05/18 04:51:20;;;;;;;;;;;11.40;99.90;;;;;;5095203;28;19915;-80
2022/05/18 04:53:45;;;;;;;;;;;11.50;99.90;;;;;;5095075;28;19995;-81
2022/05/18 04:56:11;;;;;;;;;;;11.40;99.90;;;;;;5094784;28;19908;-80
2022/05/18 04:58:36;;;;;;;;;;;11.40;99.90;;;;;;5095233;28;19928;-80
2022/05/18 05:01:04;;;;;;;;;;;11.50;99.90;;;;;;5094355;28;19908;-80
2022/05/18 05:03:30;;;;;;;;;;;11.50;99.90;;;;;;5094305;28;20386;-80
2022/05/18 05:05:55;;;;;;;;;;;11.50;99.90;;;;;;5093149;28;19916;-80
2022/05/18 05:08:21;;;;;;;;;;;11.60;99.90;;;;;;5094825;28;19931;-80
2022/05/18 05:10:47;;;;;;;;;;;11.70;99.90;;;;;;5094676;28;19912;-81
2022/05/18 05:13:12;;;;;;;;;;;11.70;99.90;;;;;;5094503;28;20003;-80
2022/05/18 05:15:38;;;;;;;;;;;11.80;99.90;;;;;;5094656;28;19913;-80
2022/05/18 05:18:04;;;;;;;;;;;11.80;99.90;;;;;;5094096;28;19908;-80
2022/05/18 05:20:29;;;;;;;;;;;11.90;99.90;;;;;;5094468;28;19908;-80
2022/05/18 05:22:55;;;;;;;;;;;12.00;99.90;;;;;;5093486;28;20003;-79
2022/05/18 05:25:21;;;;;;;;;;;12.00;99.90;;;;;;5093874;28;19912;-80
2022/05/18 05:27:47;;;;;;;;;;;12.10;99.90;;;;;;5093780;28;19912;-80
2022/05/18 05:30:12;;;;;;;;;;;12.20;99.90;;;;;;5093576;28;20693;-79
2022/05/18 05:32:38;;;;;;;;;;;12.30;99.90;;;;;;5093245;28;19959;-80
2022/05/18 05:35:04;;;;;;;;;;;12.40;99.90;;;;;;5092265;28;20375;-79
2022/05/18 05:37:30;;;;;;;;;;;12.40;99.90;;;;;;5093649;28;19908;-80
2022/05/18 05:39:55;;;;;;;;;;;12.50;99.90;;;;;;5093493;28;19953;-79
2022/05/18 05:42:22;;;;;;;;;;;12.70;99.90;;;;;;5094126;28;19919;-79
2022/05/18 05:44:47;;;;;;;;;;;12.80;99.90;;;;;;5092871;28;19977;-80
2022/05/18 05:47:13;;;;;;;;;;;12.80;99.90;;;;;;5093480;28;20834;-79
2022/05/18 05:49:39;;;;;;;;;;;12.90;99.90;;;;;;5093822;28;19908;-79
2022/05/18 05:52:06;;;;;;;;;;;13.00;99.90;;;;;;5093077;28;19908;-78
2022/05/18 05:54:32;;;;;;;;;;;13.30;99.90;;;;;;5093966;28;19917;-79
2022/05/18 05:57:01;;;;;;;;;;;13.50;99.90;;;;;;5092809;28;19920;-79
2022/05/18 05:59:27;;;;;;;;;;;13.60;99.90;;;;;;5093527;28;20438;-80
2022/05/18 06:01:52;;;;;;;;;;;13.80;99.90;;;;;;5093533;28;19912;-78
2022/05/18 06:04:18;;;;;;;;;;;14.00;99.90;;;;;;5093452;28;20283;-79
2022/05/18 06:06:44;;;;;;;;;;;14.20;99.90;;;;;;5093438;28;19915;-79
2022/05/18 06:09:09;;;;;;;;;;;14.40;99.90;;;;;;5092918;28;20276;-80
2022/05/18 06:11:36;;;;;;;;;;;14.40;99.90;;;;;;5093449;28;19915;-79
2022/05/18 06:14:02;;;;;;;;;;;14.60;99.90;;;;;;5092990;28;19969;-79
2022/05/18 06:16:28;;;;;;;;;;;14.60;99.90;;;;;;5093380;28;19919;-79
2022/05/18 06:18:53;;;;;;;;;;;14.60;99.90;;;;;;5093361;28;19956;-77
2022/05/18 06:21:19;;;;;;;;;;;14.50;99.90;;;;;;5092843;28;20376;-79
2022/05/18 06:23:45;;;;;;;;;;;14.50;99.90;;;;;;5093367;28;20045;-80
2022/05/18 06:26:10;;;;;;;;;;;14.50;99.90;;;;;;5092787;28;19913;-80
2022/05/18 06:28:36;;;;;;;;;;;14.50;99.90;;;;;;5093149;28;20426;-80
2022/05/18 06:31:03;;;;;;;;;;;14.60;99.90;;;;;;5092729;28;19952;-80
2022/05/18 06:33:28;;;;;;;;;;;14.70;99.90;;;;;;5093061;28;19915;-80
2022/05/18 06:35:54;;;;;;;;;;;14.80;99.90;;;;;;5092730;28;19908;-80
2022/05/18 06:38:20;;;;;;;;;;;14.90;99.90;;;;;;5092294;28;19953;-80
2022/05/18 06:43:30;;;;;;;;;;;15.00;99.90;;;;;;5092851;28;20008;-79
2022/05/18 06:45:56;;;;;;;;;;;15.10;99.90;;;;;;5097143;28;19912;-77
2022/05/18 06:48:22;;;;;;;;;;;15.10;99.90;;;;;;5092768;28;19908;-79
2022/05/18 06:50:48;;;;;;;;;;;15.10;99.90;;;;;;5092797;28;19919;-80
2022/05/18 06:53:14;;;;;;;;;;;15.10;99.90;;;;;;5092280;28;19908;-78
2022/05/18 06:55:39;;;;;;;;;;;15.20;99.90;;;;;;5092937;28;19968;-79
2022/05/18 06:58:05;;;;;;;;;;;15.10;99.90;;;;;;5092188;28;19920;-79
2022/05/18 07:00:30;;;;;;;;;;;15.10;99.90;;;;;;5092829;28;20261;-80
2022/05/18 07:02:56;;;;;;;;;;;15.00;99.90;;;;;;5092825;28;19912;-79
2022/05/18 07:05:22;;;;;;;;;;;15.00;99.90;;;;;;5092140;28;19916;-79
2022/05/18 07:07:47;;;;;;;;;;;15.00;99.90;;;;;;5092608;28;19919;-79
2022/05/18 07:10:13;;;;;;;;;;;14.90;99.90;;;;;;5091978;28;20002;-78
2022/05/18 07:12:39;;;;;;;;;;;14.90;99.90;;;;;;5091530;28;19908;-78
2022/05/18 07:15:05;;;;;;;;;;;14.90;99.90;;;;;;5092042;28;19990;-78
2022/05/18 07:17:31;;;;;;;;;;;14.90;99.90;;;;;;5092609;28;19969;-79
2022/05/18 07:19:57;;;;;;;;;;;15.00;99.90;;;;;;5092678;28;19912;-79
2022/05/18 07:22:23;;;;;;;;;;;15.10;99.90;;;;;;5092003;28;20380;-79
2022/05/18 07:24:49;;;;;;;;;;;15.30;99.90;;;;;;5092508;28;19920;-79
2022/05/18 07:27:15;;;;;;;;;;;15.30;99.90;;;;;;5091832;28;19995;-79
2022/05/18 07:29:41;;;;;;;;;;;15.30;99.90;;;;;;5092453;28;19908;-80
2022/05/18 07:32:12;;;;;;;;;;;15.30;99.90;;;;;;5091942;28;19912;-77
2022/05/18 07:34:38;;;;;;;;;;;15.40;99.90;;;;;;5091727;28;19912;-77
2022/05/18 07:37:05;;;;;;;;;;;15.50;99.90;;;;;;5091533;28;19908;-78
2022/05/18 07:39:30;;;;;;;;;;;15.60;99.90;;;;;;5092633;28;20011;-78
2022/05/18 07:41:59;;;;;;;;;;;15.50;99.90;;;;;;5091803;28;20014;-79
2022/05/18 07:44:28;;;;;;;;;;;15.40;99.90;;;;;;5091754;28;19965;-78
2022/05/18 07:46:55;;;;;;;;;;;15.40;99.90;;;;;;5092174;28;19912;-79
2022/05/18 07:49:21;;;;;;;;;;;15.30;99.90;;;;;;5091416;28;20376;-78
2022/05/18 07:51:46;;;;;;;;;;;15.30;99.90;;;;;;5093520;28;19908;-79
2022/05/18 07:54:12;;;;;;;;;;;15.20;99.90;;;;;;5091794;28;19908;-79
2022/05/18 07:56:38;;;;;;;;;;;15.20;99.90;;;;;;5095987;28;20269;-78
2022/05/18 07:59:04;;;;;;;;;;;15.20;99.90;;;;;;5095647;28;20357;-78
2022/05/18 08:01:30;;;;;;;;;;;15.20;99.90;;;;;;5094563;28;19919;-79
2022/05/18 08:03:55;;;;;;;;;;;15.20;99.90;;;;;;5094853;28;19947;-79
2022/05/18 08:06:21;;;;;;;;;;;15.20;99.90;;;;;;5095069;28;19988;-78
2022/05/18 08:08:47;;;;;;;;;;;15.30;99.90;;;;;;5095486;28;19912;-77
2022/05/18 08:16:41;;;;;;;;;;;15.50;99.90;;;;;;5095257;28;19931;-78
2022/05/18 08:19:10;;;;;;;;;;;15.60;99.90;;;;;;5094432;28;20720;-79
2022/05/18 08:21:37;;;;;;;;;;;15.60;99.90;;;;;;5094799;28;19923;-79
2022/05/18 08:24:04;;;;;;;;;;;15.60;99.90;;;;;;5094587;28;20440;-77
2022/05/18 08:26:31;;;;;;;;;;;15.60;99.90;;;;;;5094988;28;19908;-80
2022/05/18 08:28:57;;;;;;;;;;;15.50;99.90;;;;;;5085645;28;20586;-79
2022/05/18 08:31:23;;;;;;;;;;;15.50;99.90;;;;;;5089398;28;19955;-79
2022/05/18 08:33:49;;;;;;;;;;;15.40;99.90;;;;;;5094840;28;19947;-80
2022/05/18 08:36:17;;;;;;;;;;;15.40;99.90;;;;;;5094119;28;19908;-79
2022/05/18 08:38:43;;;;;;;;;;;15.50;99.90;;;;;;5094659;28;19908;-79
2022/05/18 08:41:13;;;;;;;;;;;15.70;99.90;;;;;;5093721;28;20387;-79
2022/05/18 08:43:47;;;;;;;;;;;15.70;99.90;;;;;;5094705;28;19918;-80
2022/05/18 08:46:20;;;;;;;;;;;15.70;99.90;;;;;;5094126;28;19979;-80
2022/05/18 08:49:04;;;;;;;;;;;15.70;99.90;;;;;;5095475;28;20416;-79
2022/05/18 08:51:37;;;;;;;;;;;15.70;99.90;;;;;;5094966;28;19915;-79
2022/05/18 08:54:21;;;;;;;;;;;15.70;99.90;;;;;;5095081;28;19958;-80
2022/05/18 08:56:47;;;;;;;;;;;15.70;99.90;;;;;;5094469;28;20015;-79
2022/05/18 08:59:16;;;;;;;;;;;15.80;99.90;;;;;;5094303;28;19943;-79
2022/05/18 09:01:46;;;;;;;;;;;15.70;99.90;;;;;;5094633;28;20252;-80
2022/05/18 09:04:21;;;;;;;;;;;15.70;99.90;;;;;;5094090;28;20025;-79
2022/05/18 09:06:49;;;;;;;;;;;15.70;99.90;;;;;;5094403;28;20437;-79
2022/05/18 09:10:27;;;;;;;;;;;15.80;99.90;;;;;;5093769;28;19954;-79
2022/05/18 09:12:21;;;;;;;;;;;15.80;99.90;;;;;;5088837;28;20387;-78
2022/05/18 09:14:47;;;;;;;;;;;16.20;99.90;;;;;;5094690;28;20002;-79
2022/05/18 09:17:20;;;;;;;;;;;16.40;99.90;;;;;;5092469;28;20395;-79
2022/05/18 09:19:52;;;;;;;;;;;16.50;99.90;;;;;;5094410;28;20207;-80
2022/05/18 09:22:21;;;;;;;;;;;16.50;99.90;;;;;;5093516;28;19916;-79
2022/05/18 09:25:05;;;;;;;;;;;16.40;99.90;;;;;;5094292;28;19968;-79
2022/05/18 09:27:31;;;;;;;;;;;16.50;99.90;;;;;;5093771;28;19912;-79
2022/05/18 09:30:14;;;;;;;;;;;16.60;99.90;;;;;;5094143;28;19918;-79
2022/05/18 09:32:59;;;;;;;;;;;16.60;99.90;;;;;;5093742;28;19933;-79
2022/05/18 09:35:30;;;;;;;;;;;16.70;99.90;;;;;;5092350;28;19936;-79
2022/05/18 09:38:16;;;;;;;;;;;16.80;99.90;;;;;;5093732;28;20284;-77
2022/05/18 09:40:51;;;;;;;;;;;17.00;99.90;;;;;;5093977;28;19908;-80
2022/05/18 09:43:21;;;;;;;;;;;17.20;99.90;;;;;;5093404;28;19916;-79
2022/05/18 09:45:48;;;;;;;;;;;17.30;99.90;;;;;;5094095;28;19916;-80
2022/05/18 09:48:15;;;;;;;;;;;17.50;99.90;;;;;;5092793;28;19915;-79
2022/05/18 09:50:43;;;;;;;;;;;17.60;99.90;;;;;;5094587;28;20242;-80
2022/05/18 09:53:09;;;;;;;;;;;17.70;99.90;;;;;;5093837;28;19908;-77
2022/05/18 09:55:34;;;;;;;;;;;17.80;99.90;;;;;;5093150;28;19908;-80
2022/05/18 09:58:03;;;;;;;;;;;17.90;99.90;;;;;;5093911;28;19924;-80
2022/05/18 10:00:30;;;;;;;;;;;18.10;99.90;;;;;;5093089;28;19914;-80
2022/05/18 10:07:27;;;;;;;;;;;18.20;99.90;;;;;;5092684;28;20730;-79
2022/05/18 10:08:37;;;;;;;;;;;18.20;99.90;;;;;;5092852;28;19915;-81
2022/05/18 10:11:07;;;;;;;;;;;18.20;99.90;;;;;;5093759;28;19908;-80
2022/05/18 10:13:35;;;;;;;;;;;18.20;99.90;;;;;;5093192;28;19954;-79
2022/05/18 10:16:00;;;;;;;;;;;18.10;99.90;;;;;;5093082;28;19915;-80
2022/05/18 10:18:32;;;;;;;;;;;18.00;99.90;;;;;;5093469;28;20280;-80
2022/05/18 10:21:03;;;;;;;;;;;18.00;99.90;;;;;;5093635;28;19912;-80
2022/05/18 10:23:32;;;;;;;;;;;18.00;99.90;;;;;;5092737;28;19951;-80
2022/05/18 10:25:57;;;;;;;;;;;17.90;99.90;;;;;;5093246;28;20006;-81
2022/05/18 10:28:24;;;;;;;;;;;17.80;99.90;;;;;;5125561;27;19974;-80
2022/05/18 10:30:58;;;;;;;;;;;17.80;99.90;;;;;;5093253;28;19908;-80
2022/05/18 10:33:33;;;;;;;;;;;17.90;99.90;;;;;;5092996;28;19951;-80
2022/05/18 10:36:12;;;;;;;;;;;17.80;99.90;;;;;;5093013;28;19915;-80
2022/05/18 10:38:47;;;;;;;;;;;17.80;99.90;;;;;;5091711;28;20340;-80
2022/05/18 10:41:13;;;;;;;;;;;17.80;99.90;;;;;;5092521;28;20390;-77
2022/05/18 10:43:57;;;;;;;;;;;17.80;99.90;;;;;;5093212;28;20014;-81
2022/05/18 10:46:49;;;;;;;;;;;17.80;99.90;;;;;;5092520;28;19912;-80
2022/05/18 10:49:29;;;;;;;;;;;17.70;99.90;;;;;;5090919;28;19973;-80
2022/05/18 10:52:08;;;;;;;;;;;17.70;99.90;;;;;;5092883;28;19908;-80
2022/05/18 10:54:33;;;;;;;;;;;17.70;99.90;;;;;;5092067;28;20475;-80
2022/05/18 10:57:13;;;;;;;;;;;17.70;99.90;;;;;;5092773;28;19920;-80
2022/05/18 10:59:48;;;;;;;;;;;17.70;99.90;;;;;;5092837;28;19916;-81
2022/05/18 11:02:16;;;;;;;;;;;17.80;99.90;;;;;;5092515;28;19912;-78
2022/05/18 11:04:47;;;;;;;;;;;17.90;99.90;;;;;;5091747;28;19912;-79
2022/05/18 11:07:13;;;;;;;;;;;17.90;99.90;;;;;;5092364;28;20316;-78
2022/05/18 11:09:40;;;;;;;;;;;18.00;99.90;;;;;;5091759;28;19908;-80
2022/05/18 11:12:14;;;;;;;;;;;18.10;99.90;;;;;;5091595;28;19912;-81
2022/05/18 11:14:43;;;;;;;;;;;18.00;99.90;;;;;;5091696;28;19957;-81
2022/05/18 11:17:27;;;;;;;;;;;18.10;99.90;;;;;;5092332;28;19908;-80
2022/05/18 11:19:58;;;;;;;;;;;18.10;99.90;;;;;;5091111;28;19908;-80
2022/05/18 11:22:30;;;;;;;;;;;18.10;99.90;;;;;;5090936;28;19985;-80
2022/05/18 11:25:05;;;;;;;;;;;18.00;99.90;;;;;;5092300;28;20251;-81
2022/05/18 11:27:50;;;;;;;;;;;17.90;99.90;;;;;;5091733;28;19936;-80
2022/05/18 11:30:36;;;;;;;;;;;17.90;99.90;;;;;;5092957;28;19915;-77
2022/05/18 11:33:20;;;;;;;;;;;18.10;99.90;;;;;;5096214;28;20377;-82
2022/05/18 11:35:57;;;;;;;;;;;18.10;99.90;;;;;;5096244;28;19908;-81
2022/05/18 11:38:30;;;;;;;;;;;18.20;99.90;;;;;;5095887;28;19908;-81
2022/05/18 11:41:18;;;;;;;;;;;18.20;99.90;;;;;;5095785;28;19961;-81
2022/05/18 11:44:07;;;;;;;;;;;18.30;99.90;;;;;;5095873;28;19963;-81
2022/05/18 11:46:39;;;;;;;;;;;18.40;99.90;;;;;;5089879;28;19962;-82
2022/05/18 11:49:10;;;;;;;;;;;18.40;99.90;;;;;;5094451;28;20323;-81
2022/05/18 11:51:45;;;;;;;;;;;18.30;99.90;;;;;;5095264;28;19912;-81
2022/05/18 11:54:29;;;;;;;;;;;18.30;99.90;;;;;;5095736;28;19915;-82
2022/05/18 11:57:01;;;;;;;;;;;18.30;99.90;;;;;;5095732;28;20014;-83
2022/05/18 11:59:50;;;;;;;;;;;18.30;99.90;;;;;;5095472;28;20223;-82
2022/05/18 12:02:22;;;;;;;;;;;18.20;99.90;;;;;;5096008;28;19934;-79
2022/05/18 12:05:00;;;;;;;;;;;17.90;99.90;;;;;;5095962;28;19922;-84
2022/05/18 12:07:34;;;;;;;;;;;17.90;99.90;;;;;;5095055;28;19955;-83
2022/05/18 12:10:09;;;;;;;;;;;17.80;99.90;;;;;;5096317;28;19914;-81
2022/05/18 12:12:34;;;;;;;;;;;17.80;99.90;;;;;;5097676;28;20365;-83
2022/05/18 12:15:20;;;;;;;;;;;17.80;99.90;;;;;;5096529;28;19908;-83
2022/05/18 12:17:52;;;;;;;;;;;17.70;99.90;;;;;;5096135;28;19912;-86
2022/05/18 12:20:22;;;;;;;;;;;17.50;99.90;;;;;;5097238;28;19961;-79
2022/05/18 12:22:53;;;;;;;;;;;17.20;99.90;;;;;;5095012;28;20285;-84
2022/05/18 12:25:20;;;;;;;;;;;17.10;99.90;;;;;;5095172;28;19974;-78
2022/05/18 12:27:46;;;;;;;;;;;17.00;99.90;;;;;;5095145;28;20379;-83
2022/05/18 12:30:14;;;;;;;;;;;17.00;99.90;;;;;;5095524;28;20015;-83
2022/05/18 12:32:40;;;;;;;;;;;16.90;99.90;;;;;;5094514;28;20368;-82
2022/05/18 12:35:07;;;;;;;;;;;16.90;99.90;;;;;;5095352;28;19954;-83
2022/05/18 12:37:53;;;;;;;;;;;16.90;99.90;;;;;;5094139;28;19991;-84
2022/05/18 12:40:25;;;;;;;;;;;16.80;99.90;;;;;;5072293;28;19973;-78
2022/05/18 12:42:56;;;;;;;;;;;16.80;99.90;;;;;;5093967;28;20296;-83
2022/05/18 12:45:29;;;;;;;;;;;16.80;99.90;;;;;;5094088;28;19918;-82
2022/05/18 12:48:09;;;;;;;;;;;16.80;99.90;;;;;;5093218;28;20311;-81
2022/05/18 12:50:36;;;;;;;;;;;16.90;99.90;;;;;;5094089;28;19923;-83
2022/05/18 12:53:03;;;;;;;;;;;17.10;99.90;;;;;;5093058;28;19922;-84
2022/05/18 12:55:30;;;;;;;;;;;17.20;99.90;;;;;;5092667;28;20292;-84
2022/05/18 12:58:10;;;;;;;;;;;17.10;99.90;;;;;;5092815;28;20002;-82
2022/05/18 13:00:42;;;;;;;;;;;17.10;99.90;;;;;;5093896;28;19916;-82
2022/05/18 13:03:07;;;;;;;;;;;17.00;99.90;;;;;;5094417;28;19930;-83
2022/05/18 13:05:44;;;;;;;;;;;17.10;99.90;;;;;;5093580;28;19999;-83
2022/05/18 13:08:15;;;;;;;;;;;17.10;99.90;;;;;;5094479;28;20010;-83
2022/05/18 13:11:01;;;;;;;;;;;17.20;99.90;;;;;;5093643;28;19909;-83
2022/05/18 13:13:26;;;;;;;;;;;17.20;99.90;;;;;;5093380;28;19912;-82
2022/05/18 13:15:52;;;;;;;;;;;17.20;99.90;;;;;;5094586;28;20298;-83
2022/05/18 13:18:19;;;;;;;;;;;17.20;99.90;;;;;;5093222;28;19954;-81
2022/05/18 13:20:47;;;;;;;;;;;17.30;99.90;;;;;;5094241;28;20054;-81
2022/05/18 13:23:24;;;;;;;;;;;17.30;99.90;;;;;;5094152;28;19912;-83
2022/05/18 13:25:52;;;;;;;;;;;17.40;99.90;;;;;;5094524;28;19912;-83
2022/05/18 13:28:18;;;;;;;;;;;17.50;99.90;;;;;;5094844;28;19941;-84
2022/05/18 13:30:47;;;;;;;;;;;17.50;99.90;;;;;;5093614;28;19912;-82
2022/05/18 13:33:13;;;;;;;;;;;17.60;99.90;;;;;;5094368;28;19908;-83
2022/05/18 13:35:39;;;;;;;;;;;17.70;99.90;;;;;;5093785;28;20019;-83
2022/05/18 13:38:13;;;;;;;;;;;17.70;99.90;;;;;;5094764;28;19915;-83
2022/05/18 13:40:44;;;;;;;;;;;17.70;99.90;;;;;;5093837;28;20284;-83
2022/05/18 13:43:12;;;;;;;;;;;17.70;99.90;;;;;;5094099;28;19912;-83
2022/05/18 13:45:41;;;;;;;;;;;17.60;99.90;;;;;;5093532;28;20388;-82
2022/05/18 13:48:11;;;;;;;;;;;17.60;99.90;;;;;;5093876;28;19961;-83
2022/05/18 13:50:41;;;;;;;;;;;17.70;99.90;;;;;;5093374;28;19912;-84
2022/05/18 13:53:08;;;;;;;;;;;17.70;99.90;;;;;;5093318;28;19912;-83
2022/05/18 13:55:41;;;;;;;;;;;17.80;99.90;;;;;;5093597;28;19909;-83
2022/05/18 13:58:08;;;;;;;;;;;17.90;99.90;;;;;;5093805;28;19959;-83
2022/05/18 14:00:40;;;;;;;;;;;17.90;99.90;;;;;;5092098;28;20007;-82
2022/05/18 14:03:06;;;;;;;;;;;17.90;99.90;;;;;;5093864;28;19919;-83
2022/05/18 14:05:34;;;;;;;;;;;17.80;99.90;;;;;;5093222;28;19926;-84
2022/05/18 14:08:14;;;;;;;;;;;17.80;99.90;;;;;;5093717;28;19959;-83
2022/05/18 14:10:41;;;;;;;;;;;17.80;99.90;;;;;;5091879;28;19987;-83
2022/05/18 14:13:07;;;;;;;;;;;17.90;99.90;;;;;;5090557;28;19960;-84
2022/05/18 14:15:37;;;;;;;;;;;17.90;99.90;;;;;;5092989;28;19912;-84
2022/05/18 14:18:05;;;;;;;;;;;17.80;99.90;;;;;;5093332;28;20380;-83
2022/05/18 14:20:31;;;;;;;;;;;17.80;99.90;;;;;;5093118;28;19933;-83
2022/05/18 14:22:58;;;;;;;;;;;17.90;99.90;;;;;;5093920;28;19916;-83
2022/05/18 14:25:28;;;;;;;;;;;17.90;99.90;;;;;;5093371;28;19912;-78
2022/05/18 14:27:56;;;;;;;;;;;18.00;99.90;;;;;;5093569;28;19908;-84
2022/05/18 14:30:24;;;;;;;;;;;17.90;99.90;;;;;;5093605;28;19915;-83
2022/05/18 14:32:53;;;;;;;;;;;17.90;99.90;;;;;;5093221;28;20006;-83
2022/05/18 14:35:21;;;;;;;;;;;17.90;99.90;;;;;;5092867;28;20277;-83
2022/05/18 14:37:52;;;;;;;;;;;18.00;99.90;;;;;;5092623;28;20242;-83
2022/05/18 14:40:20;;;;;;;;;;;18.00;99.90;;;;;;5093091;28;19938;-82